Time;durP1;ratioP1;P1;durP2;ratioP2;P2;SDS_P1;SDS_P2;PMS_P1;PMS_P2;Temp;Humidity;BMP_temperature;BMP_pressure;BME280_temperature;BME280_humidity;BME280_pressure;Samples;Min_cycle;Max_cycle;Signal;HPM_P1;HPM_P2
2023/04/19 00:01:06;;;;;;;;;;;;;;;11.21;78.21;94783.75;5036091;28;1981;-53
2023/04/19 00:03:32;;;;;;;;;;;;;;;11.21;78.39;94783.75;5036378;28;1107;-53
2023/04/19 00:05:58;;;;;;;;;;;;;;;11.16;78.92;94780.78;5036139;28;1096;-53
2023/04/19 00:08:25;;;;;;;;;;;;;;;11.09;78.76;94786.81;5035970;28;1017;-53
2023/04/19 00:10:51;;;;;;;;;;;;;;;11.13;79.01;94782.81;5031521;28;1527;-53
2023/04/19 00:13:17;;;;;;;;;;;;;;;11.14;78.27;94788.97;4998520;28;1326;-53
2023/04/19 00:15:43;;;;;;;;;;;;;;;11.16;78.94;94780.78;5016404;28;1070;-53
2023/04/19 00:18:09;;;;;;;;;;;;;;;11.13;78.87;94773.91;5016074;28;1043;-53
2023/04/19 00:20:35;;;;;;;;;;;;;;;11.12;78.91;94772.28;5016159;28;1985;-53
2023/04/19 00:23:01;;;;;;;;;;;;;;;11.24;78.28;94773.53;5015910;28;1027;-53
2023/04/19 00:25:28;;;;;;;;;;;;;;;11.18;78.97;94768.91;5015761;28;1026;-53
2023/04/19 00:27:54;;;;;;;;;;;;;;;11.21;77.98;94767.69;5016066;28;1038;-53
2023/04/19 00:30:20;;;;;;;;;;;;;;;11.20;78.34;94763.38;5016008;28;1061;-53
2023/04/19 00:32:46;;;;;;;;;;;;;;;11.25;77.48;94755.63;5015854;28;1669;-53
2023/04/19 00:35:13;;;;;;;;;;;;;;;11.31;77.01;94758.47;5015952;28;959;-53
2023/04/19 00:37:39;;;;;;;;;;;;;;;11.19;77.98;94748.31;5015720;28;940;-53
2023/04/19 00:40:05;;;;;;;;;;;;;;;11.25;77.18;94753.81;5015760;28;1915;-53
2023/04/19 00:42:31;;;;;;;;;;;;;;;11.26;76.34;94749.28;5015747;28;1062;-53
2023/04/19 00:44:57;;;;;;;;;;;;;;;11.28;75.88;94757.97;5015814;28;956;-53
2023/04/19 00:47:23;;;;;;;;;;;;;;;11.23;76.07;94745.13;5015465;28;1106;-53
2023/04/19 00:49:49;;;;;;;;;;;;;;;11.02;76.77;94758.25;5015495;28;1041;-53
2023/04/19 00:52:15;;;;;;;;;;;;;;;10.88;78.31;94757.13;5014715;28;1021;-53
2023/04/19 00:54:42;;;;;;;;;;;;;;;10.94;78.31;94759.13;5015562;28;982;-53
2023/04/19 00:57:08;;;;;;;;;;;;;;;10.92;78.29;94756.59;5015618;28;1029;-53
2023/04/19 00:59:34;;;;;;;;;;;;;;;10.91;78.99;94756.81;5015281;28;1915;-53
2023/04/19 01:02:00;;;;;;;;;;;;;;;10.94;79.40;94756.44;5015589;28;1053;-53
2023/04/19 01:04:26;;;;;;;;;;;;;;;10.94;78.39;94761.78;5015127;28;1186;-53
2023/04/19 01:06:52;;;;;;;;;;;;;;;10.96;79.07;94756.28;5015144;28;2003;-53
2023/04/19 01:09:18;;;;;;;;;;;;;;;11.01;79.05;94756.59;5015229;28;978;-53
2023/04/19 01:11:45;;;;;;;;;;;;;;;11.00;79.49;94749.56;5015196;28;1534;-53
2023/04/19 01:14:11;;;;;;;;;;;;;;;11.11;78.41;94746.50;5014751;28;1248;-53
2023/04/19 01:16:37;;;;;;;;;;;;;;;11.20;77.84;94750.81;5014923;28;1238;-53
2023/04/19 01:19:04;;;;;;;;;;;;;;;11.18;77.51;94752.84;5014841;28;1902;-53
2023/04/19 01:21:31;;;;;;;;;;;;;;;11.15;78.35;94750.50;5014750;28;1042;-53
2023/04/19 01:23:57;;;;;;;;;;;;;;;11.12;77.75;94751.69;5014861;28;1113;-54
2023/04/19 01:26:23;;;;;;;;;;;;;;;11.06;78.26;94749.72;5014942;28;979;-54
2023/04/19 01:28:49;;;;;;;;;;;;;;;10.97;77.44;94745.41;5014762;28;1109;-54
2023/04/19 01:31:15;;;;;;;;;;;;;;;11.04;78.88;94742.84;5014653;28;1059;-53
2023/04/19 01:33:41;;;;;;;;;;;;;;;11.08;78.31;94744.19;5014659;28;1058;-54
2023/04/19 01:36:07;;;;;;;;;;;;;;;11.14;78.12;94743.50;4997325;28;1045;-54
2023/04/19 01:38:34;;;;;;;;;;;;;;;11.15;78.21;94742.47;5014643;28;1034;-54
2023/04/19 01:41:00;;;;;;;;;;;;;;;11.11;79.24;94739.31;4996996;28;1910;-53
2023/04/19 01:43:26;;;;;;;;;;;;;;;11.13;78.98;94745.34;5014641;28;1239;-54
2023/04/19 01:45:52;;;;;;;;;;;;;;;11.17;78.97;94740.44;5014508;28;1058;-54
2023/04/19 01:48:18;;;;;;;;;;;;;;;11.18;78.57;94741.31;5014667;28;1042;-54
2023/04/19 01:50:44;;;;;;;;;;;;;;;11.23;77.79;94730.88;5014375;28;1054;-54
2023/04/19 01:53:10;;;;;;;;;;;;;;;11.37;76.91;94737.34;5014542;28;1030;-54
2023/04/19 01:55:36;;;;;;;;;;;;;;;11.32;77.03;94735.19;5014475;28;991;-54
2023/04/19 01:58:02;;;;;;;;;;;;;;;11.36;76.50;94725.78;5014445;28;1065;-54
2023/04/19 02:00:28;;;;;;;;;;;;;;;11.31;76.56;94728.19;5014063;28;1969;-54
2023/04/19 02:02:54;;;;;;;;;;;;;;;11.24;77.65;94735.25;5013576;28;949;-54
2023/04/19 02:05:20;;;;;;;;;;;;;;;11.22;76.71;94727.38;5014335;28;1133;-54
2023/04/19 02:07:46;;;;;;;;;;;;;;;11.27;76.93;94737.59;5014054;28;1018;-54
2023/04/19 02:10:12;;;;;;;;;;;;;;;11.30;76.46;94726.50;5014195;28;1241;-54
2023/04/19 02:12:38;;;;;;;;;;;;;;;11.35;76.93;94734.03;4995153;28;1647;-54
2023/04/19 02:15:04;;;;;;;;;;;;;;;11.36;76.32;94733.81;4994232;28;1101;-53
2023/04/19 02:17:30;;;;;;;;;;;;;;;11.40;76.83;94728.97;4994494;28;1034;-54
2023/04/19 02:19:56;;;;;;;;;;;;;;;11.41;76.55;94731.47;4994173;28;1973;-54
2023/04/19 02:22:22;;;;;;;;;;;;;;;11.29;77.79;94735.56;4994094;28;987;-54
2023/04/19 02:24:48;;;;;;;;;;;;;;;11.28;78.37;94736.56;4994136;28;1050;-54
2023/04/19 02:27:15;;;;;;;;;;;;;;;11.24;78.97;94736.06;4994400;28;998;-54
2023/04/19 02:29:41;;;;;;;;;;;;;;;11.28;77.88;94731.22;4994353;28;960;-54
2023/04/19 02:32:07;;;;;;;;;;;;;;;11.42;76.69;94724.25;4994168;28;1035;-54
2023/04/19 02:34:33;;;;;;;;;;;;;;;11.44;76.20;94724.91;4994030;28;1639;-54
2023/04/19 02:36:59;;;;;;;;;;;;;;;11.35;76.84;94720.66;4993990;28;1042;-54
2023/04/19 02:39:26;;;;;;;;;;;;;;;11.41;76.44;94725.28;4993876;28;1914;-53
2023/04/19 02:41:52;;;;;;;;;;;;;;;11.40;75.75;94723.59;4994217;28;1060;-54
2023/04/19 02:44:18;;;;;;;;;;;;;;;11.30;76.45;94721.97;4994009;28;1041;-54
2023/04/19 02:46:50;;;;;;;;;;;;;;;11.22;76.79;94726.56;4994166;28;1027;-54
2023/04/19 02:49:16;;;;;;;;;;;;;;;11.20;77.64;94729.41;4993821;28;1042;-53
2023/04/19 02:51:43;;;;;;;;;;;;;;;11.26;76.85;94722.53;4994140;28;1034;-54
2023/04/19 02:54:09;;;;;;;;;;;;;;;11.22;76.89;94721.22;4993630;28;1050;-54
2023/04/19 02:56:35;;;;;;;;;;;;;;;11.22;77.50;94726.56;4994078;28;1049;-54
2023/04/19 02:59:02;;;;;;;;;;;;;;;10.99;78.01;94721.16;4994038;28;1042;-54
2023/04/19 03:01:28;;;;;;;;;;;;;;;10.80;80.71;94720.56;4993547;28;1910;-53
2023/04/19 03:03:54;;;;;;;;;;;;;;;10.66;83.38;94722.13;4993908;28;1021;-53
2023/04/19 03:06:20;;;;;;;;;;;;;;;10.61;84.21;94719.13;4993956;28;1038;-53
2023/04/19 03:08:46;;;;;;;;;;;;;;;10.53;84.82;94719.97;4993823;28;1053;-53
2023/04/19 03:11:12;;;;;;;;;;;;;;;10.65;84.33;94720.44;5000969;28;1532;-52
2023/04/19 03:13:39;;;;;;;;;;;;;;;10.76;83.91;94724.59;5013040;28;1877;-53
2023/04/19 03:16:05;;;;;;;;;;;;;;;10.80;84.07;94725.09;5017060;28;1152;-52
2023/04/19 03:18:31;;;;;;;;;;;;;;;10.81;84.05;94724.06;5017111;28;1062;-52
2023/04/19 03:20:57;;;;;;;;;;;;;;;10.84;84.37;94721.06;5017349;28;2013;-52
2023/04/19 03:23:24;;;;;;;;;;;;;;;10.86;83.51;94725.22;5016935;28;1110;-52
2023/04/19 03:25:50;;;;;;;;;;;;;;;10.98;82.91;94725.66;5017135;28;1002;-53
2023/04/19 03:28:16;;;;;;;;;;;;;;;10.97;83.55;94725.84;5017261;28;973;-53
2023/04/19 03:30:42;;;;;;;;;;;;;;;10.94;83.41;94725.16;5016920;28;1102;-53
2023/04/19 03:33:08;;;;;;;;;;;;;;;10.89;84.04;94724.06;5017152;28;1041;-53
2023/04/19 03:35:34;;;;;;;;;;;;;;;10.81;84.46;94724.88;5016838;28;1046;-53
2023/04/19 03:38:00;;;;;;;;;;;;;;;10.70;85.07;94719.94;5016761;28;1109;-53
2023/04/19 03:40:26;;;;;;;;;;;;;;;10.71;84.75;94725.09;5016907;28;2011;-53
2023/04/19 03:42:52;;;;;;;;;;;;;;;10.65;84.43;94728.47;5017068;28;1003;-54
2023/04/19 03:45:18;;;;;;;;;;;;;;;10.67;84.76;94728.28;5016759;28;1037;-53
2023/04/19 03:47:44;;;;;;;;;;;;;;;10.72;84.39;94732.13;5016649;28;1002;-53
2023/04/19 03:50:10;;;;;;;;;;;;;;;10.59;85.60;94731.00;5016767;28;966;-54
2023/04/19 03:52:36;;;;;;;;;;;;;;;10.65;86.07;94730.31;5016710;28;1042;-54
2023/04/19 03:55:03;;;;;;;;;;;;;;;10.74;85.42;94729.28;5016722;28;971;-53
2023/04/19 03:57:28;;;;;;;;;;;;;;;10.66;85.51;94724.78;5016391;28;1116;-53
2023/04/19 03:59:54;;;;;;;;;;;;;;;10.64;85.61;94729.50;5016391;28;2008;-54
2023/04/19 04:02:20;;;;;;;;;;;;;;;10.63;85.20;94729.66;5016617;28;979;-54
2023/04/19 04:04:51;;;;;;;;;;;;;;;10.43;85.43;94730.00;5016461;28;991;-54
2023/04/19 04:07:17;;;;;;;;;;;;;;;10.21;85.81;94728.03;5016178;28;1046;-54
2023/04/19 04:09:45;;;;;;;;;;;;;;;10.07;86.87;94726.88;5016275;28;1054;-54
2023/04/19 04:12:12;;;;;;;;;;;;;;;10.13;85.46;94727.03;5000980;28;1529;-54
2023/04/19 04:14:38;;;;;;;;;;;;;;;10.10;86.13;94723.88;4996462;28;1633;-54
2023/04/19 04:17:04;;;;;;;;;;;;;;;10.27;86.04;94730.84;4996846;28;1030;-54
2023/04/19 04:19:30;;;;;;;;;;;;;;;10.44;86.49;94738.88;4996339;28;1930;-55
2023/04/19 04:21:56;;;;;;;;;;;;;;;10.53;86.27;94732.53;4979093;28;1102;-54
2023/04/19 04:24:22;;;;;;;;;;;;;;;10.60;86.13;94732.66;4996429;28;1113;-54
2023/04/19 04:26:51;;;;;;;;;;;;;;;10.66;86.24;94727.47;4995363;28;1058;-54
2023/04/19 04:29:17;;;;;;;;;;;;;;;10.66;85.87;94730.16;4996197;28;1050;-55
2023/04/19 04:31:43;;;;;;;;;;;;;;;10.51;86.21;94737.22;4996326;28;1524;-54
2023/04/19 04:34:09;;;;;;;;;;;;;;;10.39;85.92;94741.22;4996439;28;998;-55
2023/04/19 04:36:36;;;;;;;;;;;;;;;10.41;85.93;94736.53;4979153;28;1151;-55
2023/04/19 04:39:03;;;;;;;;;;;;;;;10.49;86.20;94733.84;4996418;28;1045;-55
2023/04/19 04:41:30;;;;;;;;;;;;;;;10.51;86.70;94731.88;4996248;28;1983;-55
2023/04/19 04:43:57;;;;;;;;;;;;;;;10.49;86.66;94732.03;4996081;28;1038;-55
2023/04/19 04:46:23;;;;;;;;;;;;;;;10.56;86.47;94732.16;4996212;28;983;-54
2023/04/19 04:48:50;;;;;;;;;;;;;;;10.50;87.03;94738.19;4996252;28;1018;-55
2023/04/19 04:51:16;;;;;;;;;;;;;;;10.52;87.23;94733.50;4996076;28;978;-55
2023/04/19 04:53:42;;;;;;;;;;;;;;;10.61;86.68;94737.00;4978516;28;1109;-55
2023/04/19 04:56:08;;;;;;;;;;;;;;;10.41;85.77;94736.53;4995876;28;1042;-55
2023/04/19 04:58:34;;;;;;;;;;;;;;;10.25;85.86;94732.88;4995775;28;987;-55
2023/04/19 05:01:00;;;;;;;;;;;;;;;10.14;86.30;94742.06;4995544;28;1910;-55
2023/04/19 05:03:26;;;;;;;;;;;;;;;10.19;86.91;94738.03;4978647;28;1061;-55
2023/04/19 05:05:52;;;;;;;;;;;;;;;10.37;86.56;94740.56;4995658;28;1581;-55
2023/04/19 05:08:18;;;;;;;;;;;;;;;10.44;85.64;94722.84;4995427;28;1132;-55
2023/04/19 05:10:44;;;;;;;;;;;;;;;10.60;85.71;94741.50;4999122;28;1545;-55
2023/04/19 05:13:11;;;;;;;;;;;;;;;10.55;86.87;94739.34;5014801;28;1204;-55
2023/04/19 05:15:37;;;;;;;;;;;;;;;10.66;86.11;94737.31;5015350;28;979;-55
2023/04/19 05:18:04;;;;;;;;;;;;;;;10.77;85.30;94744.97;5015060;28;1090;-55
2023/04/19 05:20:30;;;;;;;;;;;;;;;10.73;85.65;94743.66;5014754;28;1997;-55
2023/04/19 05:22:57;;;;;;;;;;;;;;;10.65;85.38;94741.00;5014858;28;1043;-54
2023/04/19 05:25:23;;;;;;;;;;;;;;;10.61;85.70;94742.34;5014784;28;1045;-55
2023/04/19 05:27:49;;;;;;;;;;;;;;;10.74;85.07;94746.16;5014982;28;1058;-55
2023/04/19 05:30:15;;;;;;;;;;;;;;;10.75;85.12;94744.31;4997165;28;1042;-56
2023/04/19 05:32:41;;;;;;;;;;;;;;;10.88;85.46;94751.78;5014890;28;1035;-55
2023/04/19 05:35:07;;;;;;;;;;;;;;;11.12;84.52;94743.66;4997390;28;1105;-56
2023/04/19 05:37:35;;;;;;;;;;;;;;;11.32;84.32;94746.75;5014416;28;974;-55
2023/04/19 05:40:04;;;;;;;;;;;;;;;11.46;84.36;94737.13;5014555;28;1992;-55
2023/04/19 05:42:30;;;;;;;;;;;;;;;11.67;82.68;94741.03;5014372;28;1042;-56
2023/04/19 05:44:56;;;;;;;;;;;;;;;11.81;81.68;94737.56;5014394;28;1031;-56
2023/04/19 05:47:22;;;;;;;;;;;;;;;11.94;80.71;94742.34;5014599;28;955;-56
2023/04/19 05:49:48;;;;;;;;;;;;;;;12.01;80.21;94742.44;5014506;28;950;-55
2023/04/19 05:52:14;;;;;;;;;;;;;;;12.53;78.70;94738.97;5014464;28;970;-56
2023/04/19 05:54:40;;;;;;;;;;;;;;;12.79;77.33;94745.75;5014199;28;1038;-56
2023/04/19 05:57:07;;;;;;;;;;;;;;;13.07;75.66;94740.56;5014220;28;1083;-56
2023/04/19 05:59:33;;;;;;;;;;;;;;;13.33;74.27;94737.41;5013911;28;1906;-56
2023/04/19 06:02:00;;;;;;;;;;;;;;;13.81;73.28;94743.13;5014396;28;1029;-56
2023/04/19 06:04:26;;;;;;;;;;;;;;;14.85;68.62;94739.03;5014008;28;1102;-56
2023/04/19 06:06:52;;;;;;;;;;;;;;;15.23;67.85;94735.91;5014069;28;1022;-56
2023/04/19 06:09:18;;;;;;;;;;;;;;;15.43;68.51;94744.91;5013881;28;1050;-57
2023/04/19 06:11:44;;;;;;;;;;;;;;;15.93;65.48;94743.88;5002157;28;1254;-57
2023/04/19 06:14:12;;;;;;;;;;;;;;;16.32;63.10;94743.09;4994023;28;1118;-57
2023/04/19 06:16:39;;;;;;;;;;;;;;;16.41;63.98;94741.03;4994415;28;1027;-56
2023/04/19 06:19:06;;;;;;;;;;;;;;;16.70;61.20;94736.25;4994527;28;1041;-56
2023/04/19 06:21:33;;;;;;;;;;;;;;;16.63;62.54;94743.50;4994006;28;1903;-55
2023/04/19 06:23:59;;;;;;;;;;;;;;;16.71;61.95;94744.13;4994242;28;1131;-56
2023/04/19 06:26:25;;;;;;;;;;;;;;;17.11;62.20;94740.56;4994288;28;1077;-57
2023/04/19 06:28:51;;;;;;;;;;;;;;;17.57;59.82;94745.00;4994050;28;983;-57
2023/04/19 06:31:17;;;;;;;;;;;;;;;17.63;57.19;94748.72;4994014;28;1070;-57
2023/04/19 06:33:43;;;;;;;;;;;;;;;17.64;57.82;94748.50;4994126;28;1051;-57
2023/04/19 06:36:09;;;;;;;;;;;;;;;17.76;57.92;94744.06;4993925;28;1105;-56
2023/04/19 06:38:37;;;;;;;;;;;;;;;18.12;54.74;94748.06;4994306;28;995;-57
2023/04/19 06:41:03;;;;;;;;;;;;;;;18.20;56.95;94746.13;4993886;28;1902;-57
2023/04/19 06:43:29;;;;;;;;;;;;;;;18.29;54.30;94747.53;4994107;28;963;-57
2023/04/19 06:45:59;;;;;;;;;;;;;;;18.66;51.52;94743.06;4993932;28;1117;-57
2023/04/19 06:48:26;;;;;;;;;;;;;;;18.86;52.60;94745.66;4993489;28;1050;-57
2023/04/19 06:50:52;;;;;;;;;;;;;;;19.00;50.86;94746.34;4993832;28;1059;-57
2023/04/19 06:53:19;;;;;;;;;;;;;;;18.83;51.90;94750.66;4993779;28;1086;-57
2023/04/19 06:55:45;;;;;;;;;;;;;;;18.80;53.03;94754.66;4993818;28;1046;-57
2023/04/19 06:58:11;;;;;;;;;;;;;;;18.77;50.84;94757.78;4993950;28;967;-57
2023/04/19 07:00:37;;;;;;;;;;;;;;;18.92;53.88;94750.16;4993729;28;1910;-57
2023/04/19 07:03:03;;;;;;;;;;;;;;;19.06;52.43;94750.03;4976854;28;975;-57
2023/04/19 07:05:30;;;;;;;;;;;;;;;19.37;51.32;94748.25;4993630;28;1043;-57
2023/04/19 07:07:56;;;;;;;;;;;;;;;19.27;51.52;94748.78;4993972;28;1006;-58
2023/04/19 07:10:22;;;;;;;;;;;;;;;18.81;47.13;94756.31;4994224;28;1528;-56
2023/04/19 07:12:49;;;;;;;;;;;;;;;18.63;49.71;94754.34;5013235;28;1059;-57
2023/04/19 07:15:16;;;;;;;;;;;;;;;19.08;49.51;94753.34;5013096;28;1090;-57
2023/04/19 07:17:42;;;;;;;;;;;;;;;19.31;50.45;94742.69;5013555;28;996;-57
2023/04/19 07:20:08;;;;;;;;;;;;;;;19.57;48.87;94743.44;5013279;28;1914;-58
2023/04/19 07:22:34;;;;;;;;;;;;;;;19.25;50.22;94751.69;5013126;28;986;-58
2023/04/19 07:25:00;;;;;;;;;;;;;;;18.97;48.84;94752.22;5013158;28;1050;-57
2023/04/19 07:27:26;;;;;;;;;;;;;;;18.74;49.79;94744.66;5013047;28;1058;-57
2023/04/19 07:29:52;;;;;;;;;;;;;;;18.66;49.88;94755.78;5013150;28;1061;-56
2023/04/19 07:32:18;;;;;;;;;;;;;;;18.10;52.28;94752.03;5013162;28;1234;-56
2023/04/19 07:34:45;;;;;;;;;;;;;;;17.43;54.11;94748.78;5012929;28;1050;-56
2023/04/19 07:37:11;;;;;;;;;;;;;;;17.76;51.80;94760.28;4995797;28;1005;-56
2023/04/19 07:39:40;;;;;;;;;;;;;;;18.40;50.27;94754.97;5013156;28;1902;-56
2023/04/19 07:42:06;;;;;;;;;;;;;;;19.22;50.50;94741.34;5013115;28;990;-56
2023/04/19 07:44:32;;;;;;;;;;;;;;;19.31;47.70;94750.81;5012823;28;1034;-56
2023/04/19 07:46:58;;;;;;;;;;;;;;;19.94;48.22;94754.28;5013273;28;1142;-56
2023/04/19 07:49:24;;;;;;;;;;;;;;;20.19;45.78;94751.41;5012886;28;1879;-57
2023/04/19 07:51:50;;;;;;;;;;;;;;;20.47;47.69;94744.56;5012856;28;979;-56
2023/04/19 07:54:18;;;;;;;;;;;;;;;20.34;45.55;94747.47;4995270;28;1058;-57
2023/04/19 07:56:45;;;;;;;;;;;;;;;20.57;47.22;94744.78;5012752;28;1021;-56
2023/04/19 07:59:11;;;;;;;;;;;;;;;20.42;46.48;94744.41;5013032;28;1010;-57
2023/04/19 08:01:37;;;;;;;;;;;;;;;20.38;47.52;94735.91;5015853;28;1978;-57
2023/04/19 08:04:03;;;;;;;;;;;;;;;20.37;46.71;94746.97;5016534;28;955;-56
2023/04/19 08:06:29;;;;;;;;;;;;;;;20.49;46.45;94739.72;5016201;28;942;-57
2023/04/19 08:08:55;;;;;;;;;;;;;;;21.17;45.03;94742.97;5016509;28;958;-57
2023/04/19 08:11:23;;;;;;;;;;;;;;;21.67;42.45;94747.91;5007603;28;1659;-57
2023/04/19 08:13:50;;;;;;;;;;;;;;;21.50;42.62;94750.53;4996676;28;1244;-57
2023/04/19 08:16:16;;;;;;;;;;;;;;;20.61;45.56;94735.16;4996629;28;994;-57
2023/04/19 08:18:43;;;;;;;;;;;;;;;20.86;45.20;94740.38;4996603;28;968;-57
2023/04/19 08:21:09;;;;;;;;;;;;;;;21.29;42.43;94743.81;4996570;28;1906;-57
2023/04/19 08:23:35;;;;;;;;;;;;;;;21.49;43.11;94745.34;4996235;28;1042;-57
2023/04/19 08:26:01;;;;;;;;;;;;;;;21.59;43.19;94748.28;4996403;28;1047;-57
2023/04/19 08:28:27;;;;;;;;;;;;;;;21.97;40.87;94738.72;4996514;28;1002;-57
2023/04/19 08:30:53;;;;;;;;;;;;;;;21.44;40.91;94735.19;4996501;28;998;-56
2023/04/19 08:33:20;;;;;;;;;;;;;;;21.36;42.78;94725.47;4996402;28;978;-57
2023/04/19 08:35:46;;;;;;;;;;;;;;;21.46;42.76;94727.63;4996246;28;1021;-57
2023/04/19 08:38:12;;;;;;;;;;;;;;;21.53;41.82;94728.31;4996097;28;1516;-56
2023/04/19 08:40:44;;;;;;;;;;;;;;;21.39;40.61;94732.31;4996312;28;1906;-56
2023/04/19 08:43:10;;;;;;;;;;;;;;;20.53;42.79;94691.19;4995995;28;1027;-56
2023/04/19 08:45:36;;;;;;;;;;;;;;;19.35;44.92;94705.13;4996165;28;959;-55
2023/04/19 08:48:03;;;;;;;;;;;;;;;19.14;46.37;94708.28;4995953;28;1043;-56
2023/04/19 08:50:30;;;;;;;;;;;;;;;19.09;48.22;94692.69;4995752;28;1046;-56
2023/04/19 08:52:57;;;;;;;;;;;;;;;19.76;46.83;94705.47;4995803;28;1114;-56
2023/04/19 08:55:23;;;;;;;;;;;;;;;20.34;44.91;94702.13;4995629;28;1070;-56
2023/04/19 08:57:49;;;;;;;;;;;;;;;20.62;43.26;94706.09;4995758;28;1121;-56
2023/04/19 09:00:16;;;;;;;;;;;;;;;20.88;42.91;94709.44;4995767;28;1907;-56
2023/04/19 09:02:46;;;;;;;;;;;;;;;21.06;41.75;94709.31;4995959;28;927;-56
2023/04/19 09:05:13;;;;;;;;;;;;;;;21.12;41.77;94710.25;4995759;28;1030;-56
2023/04/19 09:07:39;;;;;;;;;;;;;;;21.60;41.72;94707.22;4995537;28;1018;-56
2023/04/19 09:10:06;;;;;;;;;;;;;;;22.17;40.19;94711.03;4995495;28;1049;-56
2023/04/19 09:12:33;;;;;;;;;;;;;;;22.25;39.40;94716.13;5013283;28;1349;-56
2023/04/19 09:15:02;;;;;;;;;;;;;;;22.37;39.03;94716.06;4997562;28;1281;-56
2023/04/19 09:17:28;;;;;;;;;;;;;;;22.44;40.23;94708.56;5015075;28;1033;-57
2023/04/19 09:19:54;;;;;;;;;;;;;;;22.46;39.89;94714.59;4981648;28;1902;-57
2023/04/19 09:22:20;;;;;;;;;;;;;;;22.22;38.20;94705.69;5015123;28;1293;-56
2023/04/19 09:24:47;;;;;;;;;;;;;;;21.73;41.57;94703.41;5015224;28;1036;-56
2023/04/19 09:27:23;;;;;;;;;;;;;;;21.21;42.14;94698.78;5015116;28;987;-56
2023/04/19 09:29:54;;;;;;;;;;;;;;;20.53;43.89;94685.75;5015148;28;1046;-56
2023/04/19 09:32:20;;;;;;;;;;;;;;;20.17;45.46;94687.59;5014632;28;1050;-56
2023/04/19 09:34:53;;;;;;;;;;;;;;;19.67;44.04;94684.06;5014635;28;1002;-55
2023/04/19 09:37:20;;;;;;;;;;;;;;;19.99;45.37;94686.56;5014857;28;1058;-55
2023/04/19 09:39:46;;;;;;;;;;;;;;;20.18;42.27;94689.22;5014794;28;1906;-55
2023/04/19 09:42:12;;;;;;;;;;;;;;;20.78;43.02;94689.09;5014648;28;1002;-56
2023/04/19 09:44:38;;;;;;;;;;;;;;;20.80;43.27;94699.75;5014604;28;1033;-56
2023/04/19 09:47:21;;;;;;;;;;;;;;;20.93;43.01;94698.69;5014497;28;1155;-55
2023/04/19 09:49:47;;;;;;;;;;;;;;;21.03;42.50;94712.50;5014317;28;1101;-55
2023/04/19 09:52:14;;;;;;;;;;;;;;;20.77;42.87;94701.06;5014620;28;1057;-55
2023/04/19 09:54:40;;;;;;;;;;;;;;;20.95;42.15;94697.38;5014590;28;997;-55
2023/04/19 09:57:07;;;;;;;;;;;;;;;20.84;41.93;94687.34;5014645;28;1045;-55
2023/04/19 09:59:33;;;;;;;;;;;;;;;20.77;42.68;94692.91;5014479;28;1931;-55
2023/04/19 10:01:59;;;;;;;;;;;;;;;20.65;43.88;94690.16;5014129;28;1039;-55
2023/04/19 10:04:26;;;;;;;;;;;;;;;20.44;42.76;94688.81;5014344;28;1217;-55
2023/04/19 10:06:53;;;;;;;;;;;;;;;20.36;42.88;94691.88;5014081;28;1046;-54
2023/04/19 10:09:19;;;;;;;;;;;;;;;20.18;45.45;94687.31;5014035;28;1077;-55
2023/04/19 10:11:50;;;;;;;;;;;;;;;19.54;48.74;94688.81;5002020;28;1540;-55
2023/04/19 10:17:47;;;;;;;;;;;;;;;18.22;54.55;94682.63;4975127;28;1061;-56
2023/04/19 10:20:17;;;;;;;;;;;;;;;17.83;54.64;94694.50;4974848;28;1915;-55
2023/04/19 10:22:44;;;;;;;;;;;;;;;17.64;56.99;94690.88;4975267;28;1033;-55
2023/04/19 10:25:16;;;;;;;;;;;;;;;17.41;56.46;94703.03;4974209;28;970;-55
2023/04/19 10:27:47;;;;;;;;;;;;;;;16.99;58.88;94694.47;4974763;28;1121;-55
2023/04/19 10:30:25;;;;;;;;;;;;;;;16.85;57.50;94696.38;4974960;28;1014;-55
2023/04/19 10:32:55;;;;;;;;;;;;;;;16.79;60.92;94699.91;4974690;28;982;-55
2023/04/19 10:35:23;;;;;;;;;;;;;;;16.86;59.02;94698.03;4974972;28;1054;-55
2023/04/19 10:38:05;;;;;;;;;;;;;;;16.77;61.35;94705.50;4974967;28;967;-54
2023/04/19 10:40:50;;;;;;;;;;;;;;;16.71;61.26;94705.50;4974486;28;1907;-54
2023/04/19 10:43:17;;;;;;;;;;;;;;;16.54;63.12;94705.94;4974597;28;1002;-54
2023/04/19 10:45:43;;;;;;;;;;;;;;;16.33;62.81;94704.31;4974804;28;1028;-54
2023/04/19 10:48:34;;;;;;;;;;;;;;;16.00;65.29;94706.97;4974412;28;1046;-54
2023/04/19 10:51:01;;;;;;;;;;;;;;;15.80;66.94;94701.53;4974795;28;1021;-54
2023/04/19 10:53:45;;;;;;;;;;;;;;;15.65;65.37;94711.63;4974356;28;1038;-54
2023/04/19 10:56:11;;;;;;;;;;;;;;;15.84;66.62;94708.19;4974432;28;1027;-53
2023/04/19 10:58:56;;;;;;;;;;;;;;;15.82;67.53;94707.53;4974336;28;978;-53
2023/04/19 11:01:39;;;;;;;;;;;;;;;15.76;69.09;94701.13;4974203;28;1981;-53
2023/04/19 11:04:05;;;;;;;;;;;;;;;15.81;68.42;94695.94;4974277;28;1129;-54
2023/04/19 11:06:32;;;;;;;;;;;;;;;16.00;66.57;94701.56;4974329;28;978;-53
2023/04/19 11:08:58;;;;;;;;;;;;;;;16.34;67.43;94694.34;4974327;28;998;-54
2023/04/19 11:11:25;;;;;;;;;;;;;;;16.44;66.12;94689.34;4966279;28;1350;-54
2023/04/19 11:13:54;;;;;;;;;;;;;;;16.42;65.16;94677.94;4994008;28;1033;-54
2023/04/19 11:16:20;;;;;;;;;;;;;;;16.49;66.67;94684.16;5004018;28;1086;-54
2023/04/19 11:18:46;;;;;;;;;;;;;;;16.75;64.54;94682.44;5013119;28;1124;-54
2023/04/19 11:21:13;;;;;;;;;;;;;;;16.92;62.13;94681.00;5013124;28;1977;-54
2023/04/19 11:23:39;;;;;;;;;;;;;;;17.24;62.52;94677.56;5013457;28;1042;-54
2023/04/19 11:26:09;;;;;;;;;;;;;;;17.49;60.59;94678.50;5013256;28;1042;-54
2023/04/19 11:28:35;;;;;;;;;;;;;;;17.38;61.98;94681.88;5013423;28;1053;-54
2023/04/19 11:31:03;;;;;;;;;;;;;;;17.30;62.16;94688.34;5013046;28;1038;-54
2023/04/19 11:33:36;;;;;;;;;;;;;;;16.89;59.48;94683.28;5013275;28;1002;-54
2023/04/19 11:36:02;;;;;;;;;;;;;;;16.43;64.25;94685.00;5015220;28;1042;-53
2023/04/19 11:38:28;;;;;;;;;;;;;;;16.00;62.34;94678.13;5017056;28;1235;-54
2023/04/19 11:41:01;;;;;;;;;;;;;;;15.86;65.52;94681.00;5017176;28;1983;-54
2023/04/19 11:43:34;;;;;;;;;;;;;;;16.01;70.46;94678.94;5016848;28;1026;-54
2023/04/19 11:46:18;;;;;;;;;;;;;;;15.95;68.46;94677.94;4999567;28;995;-54
2023/04/19 11:48:51;;;;;;;;;;;;;;;15.80;68.57;94694.28;5016632;28;1008;-54
2023/04/19 11:51:18;;;;;;;;;;;;;;;15.68;70.44;94700.44;5016542;28;1113;-54
2023/04/19 11:53:44;;;;;;;;;;;;;;;15.68;69.97;94709.34;5016876;28;1053;-54
2023/04/19 11:56:10;;;;;;;;;;;;;;;15.38;71.05;94706.16;5016561;28;1041;-54
2023/04/19 11:58:42;;;;;;;;;;;;;;;15.23;72.91;94707.16;5016482;28;1194;-54
2023/04/19 12:01:08;;;;;;;;;;;;;;;15.24;68.50;94689.13;5016460;28;1984;-54
2023/04/19 12:03:57;;;;;;;;;;;;;;;15.36;67.54;94683.97;5016449;28;994;-54
2023/04/19 12:06:24;;;;;;;;;;;;;;;15.09;68.25;94683.06;5016297;28;1035;-54
2023/04/19 12:08:51;;;;;;;;;;;;;;;15.22;71.34;94683.94;5016386;28;970;-54
2023/04/19 12:11:18;;;;;;;;;;;;;;;15.27;69.31;94683.34;5008255;28;1737;-54
2023/04/19 12:13:44;;;;;;;;;;;;;;;15.58;68.68;94677.41;4996388;28;1225;-54
2023/04/19 12:16:11;;;;;;;;;;;;;;;15.85;67.16;94679.38;4996373;28;1091;-54
2023/04/19 12:18:50;;;;;;;;;;;;;;;16.40;66.83;94671.91;4996658;28;1010;-54
2023/04/19 12:21:24;;;;;;;;;;;;;;;16.83;66.49;94682.25;4996515;28;1915;-53
2023/04/19 12:23:52;;;;;;;;;;;;;;;16.91;62.02;94678.50;4996719;28;971;-54
2023/04/19 12:26:18;;;;;;;;;;;;;;;16.67;57.50;94675.41;4996569;28;1214;-54
2023/04/19 12:28:44;;;;;;;;;;;;;;;16.55;58.66;94672.50;4996626;28;1042;-54
2023/04/19 12:31:10;;;;;;;;;;;;;;;16.38;60.93;94661.31;4995999;28;1047;-55
2023/04/19 12:33:36;;;;;;;;;;;;;;;16.04;60.48;94661.56;4996284;28;1041;-54
2023/04/19 12:36:02;;;;;;;;;;;;;;;15.70;62.19;94658.78;4996337;28;1057;-55
2023/04/19 12:38:28;;;;;;;;;;;;;;;15.73;60.73;94657.56;4978848;28;1018;-54
2023/04/19 12:40:54;;;;;;;;;;;;;;;15.76;61.91;94646.38;4996017;28;1907;-53
2023/04/19 12:43:20;;;;;;;;;;;;;;;16.12;58.71;94650.53;4996258;28;1059;-53
2023/04/19 12:45:46;;;;;;;;;;;;;;;16.02;60.40;94653.66;4996259;28;1009;-54
2023/04/19 12:48:12;;;;;;;;;;;;;;;16.25;58.85;94647.03;4995148;28;963;-54
2023/04/19 12:50:38;;;;;;;;;;;;;;;16.52;59.11;94653.22;4996283;28;1050;-53
2023/04/19 12:53:05;;;;;;;;;;;;;;;16.76;59.12;94651.72;4996252;28;1009;-54
2023/04/19 12:55:31;;;;;;;;;;;;;;;17.01;57.68;94643.78;4995838;28;993;-54
2023/04/19 12:57:57;;;;;;;;;;;;;;;17.06;57.95;94652.06;4996050;28;971;-53
2023/04/19 13:00:23;;;;;;;;;;;;;;;16.85;57.07;94641.56;4995907;28;1911;-54